»·PEaware :: N129WS KSBA-KBUR

N129WS :: KSBA-KBUR

FLIGHT INFORMATION

Flight Status: Arrived
Operator: Privately registered:
United States
More flights under this callsign
Pilot: Michael M. (12217)
Aircraft: PIPER PA-28 CHEROKEE ARCHER
(PA28)
More flights by this aircraft type
Origin: KSBA Santa Barbara Mun
United States
Destination: KBUR Bob Hope-Burbank
United States
More flights between these airports :: More routes between these airports
Route: +
File this flight plan on PilotEdge
Remarks: VFR Advisores
Altitude:
(Current/Filed)
3,500ft
Speed:
(Current/Filed)
120kts
Departed: 02-Feb-17 06:07 PM
Arrived: 02-Feb-17 06:58 PM
Distance/Time
Traveled:
75nm/0:51
Distance/Time
To Go:
Arrived

Flight Plot

Page will automatically refresh every two minutes.


Map Options




Map Legend


Flown Route
Filed Route
Departure Airport
Arrival Airport
Navaid (VOR, NDB)
Fix

Horizontal Profiles

Position Reports

Time Latitude Longitude Heading Altitude Ground
Speed
02-Feb-17 17:49 34.422666 -119.835598 340 15ft 0kts
02-Feb-17 17:50 34.422666 -119.835598 340 15ft 0kts
02-Feb-17 17:51 34.422666 -119.835598 340 15ft 0kts
02-Feb-17 17:52 34.422666 -119.835598 340 15ft 0kts
02-Feb-17 17:53 34.422668 -119.835599 341 15ft 0kts
02-Feb-17 17:54 34.422668 -119.835599 341 15ft 0kts
02-Feb-17 17:55 34.422722 -119.835750 260 15ft 1kts
02-Feb-17 17:56 34.422660 -119.836626 268 15ft 4kts
02-Feb-17 17:57 34.422457 -119.837123 157 15ft 0kts
02-Feb-17 17:58 34.423212 -119.837318 354 15ft 5kts
02-Feb-17 17:59 34.424931 -119.837766 349 15ft 2kts
02-Feb-17 18:00 34.426508 -119.838239 32 15ft 2kts
02-Feb-17 18:01 34.426751 -119.836083 90 15ft 15kts
02-Feb-17 18:02 34.427137 -119.834634 0 15ft 0kts
02-Feb-17 18:03 34.427137 -119.834634 0 15ft 0kts
02-Feb-17 18:04 34.427137 -119.834634 0 15ft 0kts
02-Feb-17 18:05 34.427137 -119.834634 0 15ft 0kts
02-Feb-17 18:06 34.427880 -119.835797 267 15ft 24kts
02-Feb-17 18:07 34.427100 -119.862081 260 661ft 90kts
02-Feb-17 18:08 34.426874 -119.889356 261 1558ft 95kts
02-Feb-17 18:09 34.425313 -119.921920 261 2470ft 97kts
02-Feb-17 18:10 34.424667 -119.958034 262 2103ft 99kts
02-Feb-17 18:11 34.422204 -119.991923 260 1455ft 97kts
02-Feb-17 18:12 34.431975 -120.011504 6 1689ft 82kts
02-Feb-17 18:13 34.448940 -120.000716 79 2547ft 80kts
02-Feb-17 18:14 34.452067 -119.974410 96 3427ft 79kts
02-Feb-17 18:15 34.444251 -119.940538 106 3527ft 122kts
02-Feb-17 18:16 34.436945 -119.899532 103 3525ft 125kts
02-Feb-17 18:17 34.430694 -119.859017 102 3523ft 112kts
02-Feb-17 18:18 34.425282 -119.822783 102 3526ft 108kts
02-Feb-17 18:19 34.419992 -119.787080 102 3526ft 108kts
02-Feb-17 18:20 34.414686 -119.751242 102 3526ft 108kts
02-Feb-17 18:21 34.409398 -119.715558 102 3526ft 108kts
02-Feb-17 18:22 34.404078 -119.679745 102 3526ft 108kts
02-Feb-17 18:23 34.398749 -119.643981 102 3526ft 108kts
02-Feb-17 18:24 34.393410 -119.608213 102 3526ft 108kts
02-Feb-17 18:25 34.388107 -119.572563 103 3535ft 108kts
02-Feb-17 18:26 34.382663 -119.536357 103 3537ft 113kts
02-Feb-17 18:27 34.376908 -119.498011 103 3535ft 116kts
02-Feb-17 18:28 34.371066 -119.459134 103 3535ft 118kts
02-Feb-17 18:29 34.365150 -119.419881 103 3535ft 119kts
02-Feb-17 18:30 34.359160 -119.380223 103 3536ft 120kts
02-Feb-17 18:31 34.353239 -119.340889 103 3536ft 121kts
02-Feb-17 18:32 34.347311 -119.300688 103 3545ft 121kts
02-Feb-17 18:33 34.341219 -119.260293 103 3545ft 122kts
02-Feb-17 18:34 34.335041 -119.219660 103 3545ft 123kts
02-Feb-17 18:35 34.328777 -119.178631 103 3545ft 124kts
02-Feb-17 18:36 34.322427 -119.137171 103 3545ft 125kts
02-Feb-17 18:37 34.316003 -119.095345 103 3545ft 127kts
02-Feb-17 18:38 34.309762 -119.054793 103 3545ft 128kts
02-Feb-17 18:39 34.303190 -119.012158 103 3545ft 129kts
02-Feb-17 18:40 34.296581 -118.969374 103 3545ft 129kts
02-Feb-17 18:41 34.291249 -118.934412 105 3544ft 91kts
02-Feb-17 18:42 34.286263 -118.902694 104 3572ft 111kts
02-Feb-17 18:43 34.280206 -118.863390 103 3561ft 112kts
02-Feb-17 18:44 34.274614 -118.827621 104 3567ft 114kts
02-Feb-17 18:45 34.268312 -118.787232 103 3564ft 126kts
02-Feb-17 18:46 34.261827 -118.745679 104 3560ft 125kts
02-Feb-17 18:47 34.255362 -118.704451 104 3556ft 124kts
02-Feb-17 18:48 34.249203 -118.665233 105 3553ft 116kts
02-Feb-17 18:49 34.243501 -118.628980 105 3550ft 106kts
02-Feb-17 18:50 34.238049 -118.594529 105 3548ft 104kts
02-Feb-17 18:51 34.232590 -118.560067 105 3547ft 106kts
02-Feb-17 18:52 34.226872 -118.523971 105 3546ft 111kts
02-Feb-17 18:53 34.221022 -118.487084 105 3546ft 112kts
02-Feb-17 18:54 34.213560 -118.452283 118 3190ft 101kts
02-Feb-17 18:55 34.200702 -118.423809 111 2089ft 96kts
02-Feb-17 18:56 34.198398 -118.395236 93 1233ft 70kts
02-Feb-17 18:57 34.198056 -118.371199 93 864ft 73kts
02-Feb-17 18:58 34.197847 -118.358369 65 779ft 19kts
02-Feb-17 18:59 34.198576 -118.357976 1 779ft 0kts
02-Feb-17 19:00 34.198882 -118.358466 271 779ft 10kts
02-Feb-17 19:01 34.200519 -118.359046 335 779ft 6kts
02-Feb-17 19:02 34.200725 -118.359125 244 779ft 0kts
02-Feb-17 19:03 34.200725 -118.359125 244 779ft 0kts
02-Feb-17 19:04 34.200725 -118.359125 244 779ft 0kts
02-Feb-17 19:05 34.200725 -118.359125 244 779ft 0kts
02-Feb-17 19:06 34.200725 -118.359125 244 779ft 0kts
02-Feb-17 19:07 34.200725 -118.359125 244 779ft 0kts
02-Feb-17 19:08 34.200725 -118.359125 244 779ft 0kts
02-Feb-17 19:09 34.200725 -118.359125 244 779ft 0kts
02-Feb-17 19:10 34.200725 -118.359125 244 779ft 0kts
02-Feb-17 19:11 34.200725 -118.359125 244 779ft 0kts
02-Feb-17 19:12 34.200725 -118.359125 244 779ft 0kts

Navigation Log

Ident Type
1. KSBA Airport
2. KBUR Airport